createdAt,value
2023-02-04T00:01:30.644Z,99617.16
2023-02-04T00:03:35.005Z,99622.57
2023-02-04T00:05:39.368Z,99617.91
2023-02-04T00:07:43.829Z,99614.28
2023-02-04T00:09:48.195Z,99625.83
2023-02-04T00:11:52.538Z,99624.86
2023-02-04T00:13:56.922Z,99630.75
2023-02-04T00:16:01.388Z,99645.59
2023-02-04T00:18:05.859Z,99631.16
2023-02-04T00:20:10.233Z,99640.34
2023-02-04T00:22:14.582Z,99633.53
2023-02-04T00:24:18.943Z,99639.69
2023-02-04T00:26:23.337Z,99643.09
2023-02-04T00:28:27.692Z,99640.5
2023-02-04T00:30:32.791Z,99663.45
2023-02-04T00:32:37.250Z,99673.19
2023-02-04T00:34:41.600Z,99683.84
2023-02-04T00:36:45.956Z,99678.23
2023-02-04T00:38:50.326Z,99690.28
2023-02-04T00:40:54.695Z,99696.32
2023-02-04T00:42:59.079Z,99703.01
2023-02-04T00:45:03.532Z,99697.78
2023-02-04T00:47:07.887Z,99700
2023-02-04T00:49:12.266Z,99711.53
2023-02-04T00:51:16.622Z,99696.23
2023-02-04T00:53:20.979Z,99702.61
2023-02-04T00:55:25.350Z,99704.14
2023-02-04T00:57:29.665Z,99716.39
2023-02-04T00:59:34.037Z,99724.52
2023-02-04T01:01:38.422Z,99725.55
2023-02-04T01:03:42.729Z,99734.56
2023-02-04T01:05:47.022Z,99746.66
2023-02-04T01:07:51.453Z,99732.3
2023-02-04T01:09:55.813Z,99760.69
2023-02-04T01:12:00.158Z,99754.98
2023-02-04T01:14:04.602Z,99769.22
2023-02-04T01:16:09.182Z,99771.44
2023-02-04T01:18:13.712Z,99776.83
2023-02-04T01:20:18.060Z,99791.95
2023-02-04T01:22:22.395Z,99785.66
2023-02-04T01:24:26.877Z,99789.03
2023-02-04T01:26:31.305Z,99791.53
2023-02-04T01:28:35.666Z,99806.34
2023-02-04T01:30:40.149Z,99827.8
2023-02-04T01:32:44.609Z,99826.61
2023-02-04T01:34:49.007Z,99824.8
2023-02-04T01:36:53.354Z,99863.22
2023-02-04T01:38:57.822Z,99884.07
2023-02-04T01:41:02.169Z,99878.38
2023-02-04T01:43:06.519Z,99911.45
2023-02-04T01:45:10.876Z,99924.97
2023-02-04T01:47:15.249Z,99929.21
2023-02-04T01:49:19.623Z,99960.59
2023-02-04T01:51:24.116Z,99991.31
2023-02-04T01:53:28.627Z,99991.7
2023-02-04T01:55:32.962Z,100001.7
2023-02-04T01:57:37.398Z,100016.25
2023-02-04T01:59:41.832Z,100023.55
2023-02-04T02:01:46.166Z,100038.41
2023-02-04T02:03:50.651Z,100052.54
2023-02-04T02:05:54.989Z,100065.63
2023-02-04T02:07:59.414Z,100070.44
2023-02-04T02:10:03.824Z,100099.02
2023-02-04T02:12:08.193Z,100105.52
2023-02-04T02:14:12.594Z,100116.55
2023-02-04T02:16:17.118Z,100129.72
2023-02-04T02:18:21.596Z,100132.83
2023-02-04T02:20:26.022Z,100145.45
2023-02-04T02:22:30.393Z,100165.2
2023-02-04T02:24:34.859Z,100180.33
2023-02-04T02:26:39.251Z,100187.95
2023-02-04T02:28:43.621Z,100209.65
2023-02-04T02:30:48.196Z,100223.05
2023-02-04T02:32:52.749Z,100226.47
2023-02-04T02:34:57.163Z,100250.16
2023-02-04T02:37:01.606Z,100269.97
2023-02-04T02:39:06.105Z,100286.45
2023-02-04T02:41:10.574Z,100303.53
2023-02-04T02:43:14.984Z,100303.3
2023-02-04T02:45:19.408Z,100328.69
2023-02-04T02:47:23.771Z,100339.81
2023-02-04T02:49:28.147Z,100350.02
2023-02-04T02:51:32.497Z,100355.05
2023-02-04T02:54:00.422Z,100380.84
2023-02-04T02:56:04.839Z,100388.31
2023-02-04T02:58:09.222Z,100407.74
2023-02-04T03:00:13.617Z,100417.55
2023-02-04T03:02:18.161Z,100436.59
2023-02-04T03:04:22.676Z,100427.3
2023-02-04T03:06:27.048Z,100455.55
2023-02-04T03:08:31.458Z,100464.48
2023-02-04T03:10:35.846Z,100475.34
2023-02-04T03:12:40.255Z,100477.88
2023-02-04T03:14:44.678Z,100503.06
2023-02-04T03:16:49.097Z,100506.83
2023-02-04T03:18:53.495Z,100531.67
2023-02-04T03:20:57.892Z,100530.73
2023-02-04T03:23:02.357Z,100551.14
2023-02-04T03:25:06.755Z,100562.78
2023-02-04T03:27:11.187Z,100570.42
2023-02-04T03:29:15.607Z,100580.11
2023-02-04T03:31:20.272Z,100604.91
2023-02-04T03:33:24.976Z,100620.58
2023-02-04T03:35:29.359Z,100634.77
2023-02-04T03:37:33.846Z,100635.59
2023-02-04T03:39:38.252Z,100650.23
2023-02-04T03:41:42.649Z,100663.65
2023-02-04T03:43:47.034Z,100682.83
2023-02-04T03:45:51.435Z,100686.55
2023-02-04T03:47:55.874Z,100701.39
2023-02-04T03:50:00.251Z,100698.27
2023-02-04T03:52:04.678Z,100699.19
2023-02-04T03:54:09.093Z,100714.59
2023-02-04T03:56:13.460Z,100729.8
2023-02-04T03:58:17.839Z,100731.48
2023-02-04T04:00:22.249Z,100742.41
2023-02-04T04:02:26.728Z,100753.38
2023-02-04T04:04:31.285Z,100767.3
2023-02-04T04:06:35.680Z,100774.73
2023-02-04T04:08:40.075Z,100784.02
2023-02-04T04:10:44.478Z,100785.66
2023-02-04T04:12:48.895Z,100795.55
2023-02-04T04:14:53.307Z,100797.35
2023-02-04T04:16:57.689Z,100800.7
2023-02-04T04:19:02.096Z,100803.23
2023-02-04T04:21:06.476Z,100812.92
2023-02-04T04:23:10.860Z,100828.05
2023-02-04T04:25:15.238Z,100839.34
2023-02-04T04:27:19.639Z,100843.72
2023-02-04T04:29:24.057Z,100844.98
2023-02-04T04:31:28.668Z,100857.84
2023-02-04T04:33:33.318Z,100845.56
2023-02-04T04:35:37.729Z,100851.77
2023-02-04T04:37:42.183Z,100855.12
2023-02-04T04:39:46.569Z,100872.87
2023-02-04T04:41:50.990Z,100878.5
2023-02-04T04:43:55.407Z,100894.47
2023-02-04T04:45:59.807Z,100898.98
2023-02-04T04:48:04.218Z,100900.78
2023-02-04T04:50:08.628Z,100914.88
2023-02-04T04:52:13.037Z,100931.84
2023-02-04T04:54:17.366Z,100926.83
2023-02-04T04:56:21.755Z,100933.2
2023-02-04T04:58:26.148Z,100948.56
2023-02-04T05:00:31.338Z,100956.34
2023-02-04T05:02:36.409Z,100971.26
2023-02-04T05:04:40.869Z,100971.19
2023-02-04T05:06:45.317Z,100981.39
2023-02-04T05:08:49.721Z,100984.91
2023-02-04T05:10:54.077Z,100994.2
2023-02-04T05:12:58.478Z,101000.72
2023-02-04T05:15:02.979Z,101004.98
2023-02-04T05:17:07.400Z,101021.61
2023-02-04T05:19:11.900Z,101022.02
2023-02-04T05:21:16.371Z,101040.52
2023-02-04T05:23:20.728Z,101055.19
2023-02-04T05:25:25.111Z,101053.48
2023-02-04T05:27:29.525Z,101065.49
2023-02-04T05:29:34.088Z,101074.6
2023-02-04T05:31:38.684Z,101058.05
2023-02-04T05:33:43.230Z,101066.89
2023-02-04T05:35:50.003Z,101085.74
2023-02-04T05:37:54.456Z,101079.5
2023-02-04T05:39:58.836Z,101080.05
2023-02-04T05:42:03.253Z,101086.19
2023-02-04T05:44:07.667Z,101083.45
2023-02-04T05:46:12.285Z,101097.92
2023-02-04T05:48:16.861Z,101104.23
2023-02-04T05:50:21.256Z,101115.08
2023-02-04T05:52:25.623Z,101114.09
2023-02-04T05:54:30.026Z,101120.23
2023-02-04T05:56:34.431Z,101125.92
2023-02-04T05:58:41.029Z,101130.59
2023-02-04T06:00:45.405Z,101143.05
2023-02-04T06:02:49.859Z,101148.75
2023-02-04T06:04:54.264Z,101155.98
2023-02-04T06:06:58.665Z,101161.38
2023-02-04T06:09:03.152Z,101166.16
2023-02-04T06:11:07.530Z,101175.09
2023-02-04T06:13:11.903Z,101176.62
2023-02-04T06:15:16.253Z,101189.52
2023-02-04T06:17:20.781Z,101203.76
2023-02-04T06:19:25.175Z,101215.57
2023-02-04T06:21:29.779Z,101229.55
2023-02-04T06:23:34.207Z,101232.34
2023-02-04T06:25:38.648Z,101241.84
2023-02-04T06:27:43.198Z,101249.79
2023-02-04T06:29:47.679Z,101271.11
2023-02-04T06:31:52.518Z,101278.23
2023-02-04T06:33:57.222Z,101286.47
2023-02-04T06:36:01.743Z,101287.72
2023-02-04T06:38:06.102Z,101297.27
2023-02-04T06:40:10.478Z,101300.55
2023-02-04T06:42:14.899Z,101309.36
2023-02-04T06:44:19.274Z,101313.97
2023-02-04T06:46:23.892Z,101329.31
2023-02-04T06:48:31.015Z,101337.19
2023-02-04T06:50:35.524Z,101335.94
2023-02-04T06:52:39.897Z,101340.06
2023-02-04T06:54:44.313Z,101351.31
2023-02-04T06:56:48.734Z,101356.98
2023-02-04T06:58:53.134Z,101361.94
2023-02-04T07:00:57.474Z,101372.36
2023-02-04T07:03:01.989Z,101377.92
2023-02-04T07:05:06.450Z,101381.05
2023-02-04T07:07:10.902Z,101390.23
2023-02-04T07:09:15.372Z,101395.58
2023-02-04T07:11:19.726Z,101399.73
2023-02-04T07:13:24.135Z,101406.35
2023-02-04T07:15:28.802Z,101413.45
2023-02-04T07:17:33.325Z,101421.72
2023-02-04T07:19:37.718Z,101429.91
2023-02-04T07:21:42.100Z,101434.48
2023-02-04T07:23:46.479Z,101437.83
2023-02-04T07:25:50.863Z,101443.59
2023-02-04T07:27:55.330Z,101453.53
2023-02-04T07:29:59.891Z,101455.5
2023-02-04T07:32:04.811Z,101466.86
2023-02-04T07:34:09.347Z,101467
2023-02-04T07:36:16.272Z,101476.77
2023-02-04T07:38:20.633Z,101483.26
2023-02-04T07:40:24.998Z,101485.13
2023-02-04T07:42:29.443Z,101488.7
2023-02-04T07:44:33.928Z,101494.92
2023-02-04T07:46:38.451Z,101486.38
2023-02-04T07:48:43.033Z,101487.94
2023-02-04T07:50:47.479Z,101495.63
2023-02-04T07:52:51.860Z,101494.5
2023-02-04T07:54:56.239Z,101516.19
2023-02-04T07:57:00.637Z,101515.72
2023-02-04T07:59:05.228Z,101518.25
2023-02-04T08:01:09.693Z,101524.08
2023-02-04T08:03:14.181Z,101532.8
2023-02-04T08:05:18.616Z,101545.46
2023-02-04T08:07:23.117Z,101544.33
2023-02-04T08:09:27.496Z,101538.94
2023-02-04T08:11:31.928Z,101548.98
2023-02-04T08:13:36.313Z,101551.05
2023-02-04T08:15:40.801Z,101560.69
2023-02-04T08:17:45.320Z,101553.13
2023-02-04T08:19:49.775Z,101557.84
2023-02-04T08:21:54.168Z,101559.41
2023-02-04T08:23:58.541Z,101559.34
2023-02-04T08:26:02.951Z,101562.23
2023-02-04T08:28:07.424Z,101565.31
2023-02-04T08:30:11.955Z,101568.95
2023-02-04T08:32:16.358Z,101575.96
2023-02-04T08:34:20.722Z,101580.24
2023-02-04T08:36:25.235Z,101578.61
2023-02-04T08:38:29.967Z,101569.48
2023-02-04T08:40:35.205Z,101583.05
2023-02-04T08:42:39.674Z,101583.98
2023-02-04T08:44:44.199Z,101582.19
2023-02-04T08:46:48.712Z,101587.61
2023-02-04T08:48:53.239Z,101586.23
2023-02-04T08:50:57.656Z,101587.81
2023-02-04T08:53:02.080Z,101585.54
2023-02-04T08:55:06.494Z,101577.13
2023-02-04T08:57:10.869Z,101585.81
2023-02-04T08:59:15.333Z,101581.13
2023-02-04T09:01:19.926Z,101582.05
2023-02-04T09:03:24.504Z,101588.02
2023-02-04T09:05:28.901Z,101584.15
2023-02-04T09:07:33.289Z,101587.79
2023-02-04T09:09:37.841Z,101584.38
2023-02-04T09:11:42.224Z,101587.55
2023-02-04T09:13:46.690Z,101589.89
2023-02-04T09:15:53.005Z,101598.04
2023-02-04T09:17:57.895Z,101596.89
2023-02-04T09:20:02.321Z,101596.72
2023-02-04T09:22:06.812Z,101603.52
2023-02-04T09:24:11.203Z,101608.34
2023-02-04T09:26:15.761Z,101605.53
2023-02-04T09:28:20.284Z,101608.74
2023-02-04T09:30:25.004Z,101616.81
2023-02-04T09:32:29.414Z,101620.56
2023-02-04T09:34:33.797Z,101630.67
2023-02-04T09:36:38.208Z,101627.05
2023-02-04T09:38:42.655Z,101628.52
2023-02-04T09:40:47.072Z,101630.95
2023-02-04T09:42:51.439Z,101636.05
2023-02-04T09:44:55.871Z,101637.54
2023-02-04T09:47:00.276Z,101638.2
2023-02-04T09:49:04.748Z,101633.97
2023-02-04T09:51:09.161Z,101634.13
2023-02-04T09:53:13.625Z,101628.66
2023-02-04T09:55:17.987Z,101623.77
2023-02-04T09:57:22.387Z,101618.28
2023-02-04T09:59:26.801Z,101630.08
2023-02-04T10:01:31.167Z,101638.61
2023-02-04T10:03:35.703Z,101636.44
2023-02-04T10:05:40.198Z,101641.7
2023-02-04T10:07:44.574Z,101645.58
2023-02-04T10:09:48.992Z,101642.25
2023-02-04T10:11:53.374Z,101649.41
2023-02-04T10:13:57.761Z,101655.71
2023-02-04T10:16:02.130Z,101654.28
2023-02-04T10:18:06.558Z,101659.68
2023-02-04T10:20:10.938Z,101655.67
2023-02-04T10:22:15.393Z,101663.58
2023-02-04T10:24:19.813Z,101676.1
2023-02-04T10:26:24.210Z,101673.07
2023-02-04T10:28:28.600Z,101677.63
2023-02-04T10:30:33.975Z,101673.87
2023-02-04T10:32:38.983Z,101680.36
2023-02-04T10:34:43.332Z,101684.77
2023-02-04T10:36:47.759Z,101680.11
2023-02-04T10:38:52.150Z,101678.13
2023-02-04T10:40:56.562Z,101676.11
2023-02-04T10:43:00.968Z,101680.5
2023-02-04T10:45:05.385Z,101680.21
2023-02-04T10:47:09.769Z,101687.59
2023-02-04T10:49:14.182Z,101689.36
2023-02-04T10:51:18.604Z,101687.06
2023-02-04T10:53:22.995Z,101689.7
2023-02-04T10:55:27.412Z,101695.72
2023-02-04T10:57:31.788Z,101696.65
2023-02-04T10:59:36.195Z,101702.07
2023-02-04T11:01:40.640Z,101704.28
2023-02-04T11:03:50.472Z,101710.06
2023-02-04T11:05:56.064Z,101706.99
2023-02-04T11:08:00.547Z,101708.77
2023-02-04T11:10:05.029Z,101718.92
2023-02-04T11:12:09.471Z,101723.94
2023-02-04T11:14:13.928Z,101722.49
2023-02-04T11:16:18.836Z,101722.31
2023-02-04T11:18:23.488Z,101729.82
2023-02-04T11:20:27.914Z,101725.37
2023-02-04T11:22:32.341Z,101735.41
2023-02-04T11:24:36.729Z,101734.47
2023-02-04T11:26:41.151Z,101744.83
2023-02-04T11:28:45.579Z,101735.8
2023-02-04T11:30:50.144Z,101738.66
2023-02-04T11:32:54.875Z,101746.63
2023-02-04T11:34:59.410Z,101744.67
2023-02-04T11:37:03.834Z,101738.38
2023-02-04T11:39:08.292Z,101740.46
2023-02-04T11:41:12.741Z,101744.25
2023-02-04T11:43:17.156Z,101743.23
2023-02-04T11:45:21.556Z,101741.75
2023-02-04T11:47:25.997Z,101755.34
2023-02-04T11:49:30.612Z,101744.33
2023-02-04T11:51:35.422Z,101759.98
2023-02-04T11:53:39.823Z,101745.66
2023-02-04T11:55:45.812Z,101754.42
2023-02-04T11:57:51.669Z,101748.75
2023-02-04T11:59:56.064Z,101755.63
2023-02-04T12:02:00.506Z,101754.84
2023-02-04T12:04:05.243Z,101758.17
2023-02-04T12:06:09.817Z,101763.74
2023-02-04T12:08:14.345Z,101775.83
2023-02-04T12:10:18.766Z,101776.33
2023-02-04T12:12:23.196Z,101779.17
2023-02-04T12:14:27.633Z,101779.53
2023-02-04T12:16:32.002Z,101785.94
2023-02-04T12:18:36.382Z,101789.48
2023-02-04T12:20:40.836Z,101787.35
2023-02-04T12:22:45.277Z,101793.75
2023-02-04T12:24:49.704Z,101783.14
2023-02-04T12:26:54.104Z,101790.97
2023-02-04T12:28:58.533Z,101782.02
2023-02-04T12:31:03.420Z,101788.73
2023-02-04T12:33:08.024Z,101783.33
2023-02-04T12:35:12.423Z,101784.23
2023-02-04T12:37:16.795Z,101792.6
2023-02-04T12:39:21.276Z,101793.19
2023-02-04T12:41:25.655Z,101786.45
2023-02-04T12:43:30.192Z,101786.43
2023-02-04T12:45:35.023Z,101787.69
2023-02-04T12:47:39.411Z,101789.44
2023-02-04T12:49:43.819Z,101789.37
2023-02-04T12:51:48.225Z,101790.66
2023-02-04T12:53:52.608Z,101793.78
2023-02-04T12:55:58.838Z,101792.47
2023-02-04T12:58:03.216Z,101785.53
2023-02-04T13:00:07.632Z,101793.65
2023-02-04T13:02:12.257Z,101793.39
2023-02-04T13:04:16.859Z,101793.11
2023-02-04T13:06:21.304Z,101796.61
2023-02-04T13:08:25.711Z,101797.39
2023-02-04T13:10:30.143Z,101805.66
2023-02-04T13:12:34.530Z,101807.27
2023-02-04T13:14:38.970Z,101806.78
2023-02-04T13:16:43.446Z,101810.7
2023-02-04T13:18:47.915Z,101814.88
2023-02-04T13:20:52.330Z,101809.06
2023-02-04T13:22:56.755Z,101816.87
2023-02-04T13:25:04.063Z,101810.53
2023-02-04T13:27:08.609Z,101822.96
2023-02-04T13:29:13.068Z,101822.58
2023-02-04T13:31:17.680Z,101818.78
2023-02-04T13:33:22.270Z,101818.8
2023-02-04T13:35:26.744Z,101822.08
2023-02-04T13:37:31.139Z,101815.63
2023-02-04T13:39:35.614Z,101821.84
2023-02-04T13:41:40.039Z,101815.09
2023-02-04T13:43:44.449Z,101821.14
2023-02-04T13:45:49.161Z,101840.63
2023-02-04T13:47:53.638Z,101837.43
2023-02-04T13:49:58.067Z,101840.69
2023-02-04T13:52:02.557Z,101845.23
2023-02-04T13:54:07.042Z,101846.28
2023-02-04T13:56:11.457Z,101851.81
2023-02-04T13:58:15.893Z,101850.52
2023-02-04T14:00:20.360Z,101855.41
2023-02-04T14:02:25.080Z,101860.52
2023-02-04T14:04:29.608Z,101864.34
2023-02-04T14:06:34.043Z,101864.33
2023-02-04T14:08:38.480Z,101868.77
2023-02-04T14:10:43.052Z,101864.31
2023-02-04T14:12:47.480Z,101867.08
2023-02-04T14:14:51.881Z,101862.41
2023-02-04T14:16:56.468Z,101866.59
2023-02-04T14:19:00.969Z,101858.31
2023-02-04T14:21:05.350Z,101865.59
2023-02-04T14:23:09.741Z,101866.35
2023-02-04T14:25:14.135Z,101869.86
2023-02-04T14:27:18.510Z,101867.84
2023-02-04T14:29:23.012Z,101862.75
2023-02-04T14:31:27.563Z,101869.07
2023-02-04T14:33:31.993Z,101875.28
2023-02-04T14:35:36.364Z,101882.26
2023-02-04T14:37:40.677Z,101882.59
2023-02-04T14:39:45.041Z,101885.05
2023-02-04T14:41:49.366Z,101888.98
2023-02-04T14:43:53.715Z,101885.22
2023-02-04T14:45:58.175Z,101884.2
2023-02-04T14:48:02.656Z,101880.56
2023-02-04T14:50:07.176Z,101875.98
2023-02-04T14:52:11.585Z,101883.69
2023-02-04T14:54:15.990Z,101876.86
2023-02-04T14:56:20.412Z,101881.81
2023-02-04T14:58:27.742Z,101883.33
2023-02-04T15:00:33.136Z,101884.01
2023-02-04T15:02:38.430Z,101885.38
2023-02-04T15:04:42.922Z,101889.19
2023-02-04T15:06:47.417Z,101888.81
2023-02-04T15:08:51.820Z,101887.53
2023-02-04T15:10:56.313Z,101895.65
2023-02-04T15:13:01.010Z,101894.04
2023-02-04T15:15:05.431Z,101888.97
2023-02-04T15:17:09.861Z,101892.72
2023-02-04T15:19:14.261Z,101904.52
2023-02-04T15:21:19.250Z,101906.85
2023-02-04T15:23:23.653Z,101895.88
2023-02-04T15:25:28.286Z,101893.97
2023-02-04T15:27:32.705Z,101899.89
2023-02-04T15:29:37.164Z,101903.66
2023-02-04T15:31:41.801Z,101908.28
2023-02-04T15:33:46.605Z,101921.77
2023-02-04T15:35:50.988Z,101919.4
2023-02-04T15:37:55.440Z,101923.36
2023-02-04T15:40:00.011Z,101925.88
2023-02-04T15:42:04.447Z,101928.43
2023-02-04T15:44:08.865Z,101921.34
2023-02-04T15:46:13.458Z,101917.84
2023-02-04T15:48:18.090Z,101908.02
2023-02-04T15:50:22.475Z,101911.43
2023-02-04T15:52:29.907Z,101913.44
2023-02-04T15:54:34.639Z,101916.28
2023-02-04T15:56:39.024Z,101911.28
2023-02-04T15:58:43.440Z,101911.97
2023-02-04T16:00:47.838Z,101916.58
2023-02-04T16:02:52.382Z,101919.05
2023-02-04T16:04:56.968Z,101920.48
2023-02-04T16:07:01.384Z,101919.3
2023-02-04T16:09:05.807Z,101919.63
2023-02-04T16:11:10.250Z,101921.02
2023-02-04T16:13:14.770Z,101930.85
2023-02-04T16:15:19.208Z,101930.27
2023-02-04T16:17:23.641Z,101933.81
2023-02-04T16:19:28.007Z,101943.23
2023-02-04T16:21:32.425Z,101942.59
2023-02-04T16:23:36.816Z,101946.08
2023-02-04T16:25:41.205Z,101950.09
2023-02-04T16:27:45.678Z,101946.05
2023-02-04T16:29:50.173Z,101942.27
2023-02-04T16:31:54.714Z,101946.64
2023-02-04T16:33:59.196Z,101948.16
2023-02-04T16:36:03.706Z,101947.16
2023-02-04T16:38:08.161Z,101947.35
2023-02-04T16:40:13.354Z,101948.86
2023-02-04T16:42:18.006Z,101949.26
2023-02-04T16:44:22.388Z,101952.9
2023-02-04T16:46:26.930Z,101962.23
2023-02-04T16:48:31.461Z,101961.08
2023-02-04T16:50:36.356Z,101960.67
2023-02-04T16:52:40.838Z,101964.78
2023-02-04T16:54:45.407Z,101964.09
2023-02-04T16:56:49.806Z,101969.59
2023-02-04T16:58:54.211Z,101969.47
2023-02-04T17:00:58.601Z,101968.39
2023-02-04T17:03:03.172Z,101970
2023-02-04T17:05:07.787Z,101968.81
2023-02-04T17:07:12.167Z,101975.53
2023-02-04T17:09:16.568Z,101968.75
2023-02-04T17:11:20.996Z,101969.82
2023-02-04T17:13:25.394Z,101968.97
2023-02-04T17:15:29.829Z,101970.87
2023-02-04T17:17:34.747Z,101975.34
2023-02-04T17:19:39.209Z,101972.48
2023-02-04T17:21:43.683Z,101975.43
2023-02-04T17:23:48.068Z,101971.92
2023-02-04T17:25:52.557Z,101976.79
2023-02-04T17:27:57.128Z,101981.69
2023-02-04T17:30:01.916Z,101984.73
2023-02-04T17:32:06.308Z,101977.89
2023-02-04T17:34:10.697Z,101987.34
2023-02-04T17:36:15.106Z,101993
2023-02-04T17:38:19.531Z,101986.06
2023-02-04T17:40:23.926Z,101989.13
2023-02-04T17:42:28.334Z,101990.27
2023-02-04T17:44:33.231Z,101987.16
2023-02-04T17:46:38.007Z,101991.13
2023-02-04T17:48:42.489Z,101990.84
2023-02-04T17:50:46.930Z,101982.05
2023-02-04T17:52:51.312Z,101987.09
2023-02-04T17:54:55.720Z,101992.94
2023-02-04T17:57:00.116Z,101993.01
2023-02-04T17:59:04.513Z,101994.61
2023-02-04T18:01:09.429Z,101994.75
2023-02-04T18:03:14.293Z,102007.7
2023-02-04T18:05:19.292Z,102006.8
2023-02-04T18:07:23.705Z,102005.97
2023-02-04T18:09:28.127Z,102012.28
2023-02-04T18:11:33.123Z,102006.8
2023-02-04T18:13:37.630Z,102009.75
2023-02-04T18:15:42.049Z,102006.91
2023-02-04T18:17:46.463Z,102008.88
2023-02-04T18:19:50.887Z,102000.31
2023-02-04T18:21:55.307Z,102003.63
2023-02-04T18:24:02.208Z,102013.66
2023-02-04T18:26:06.661Z,102016.14
2023-02-04T18:28:11.365Z,102022.66
2023-02-04T18:30:16.573Z,102034.64
2023-02-04T18:32:21.526Z,102043.72
2023-02-04T18:34:25.941Z,102043.58
2023-02-04T18:36:30.376Z,102046.61
2023-02-04T18:38:34.786Z,102049.7
2023-02-04T18:40:41.801Z,102056.77
2023-02-04T18:42:46.278Z,102056.39
2023-02-04T18:44:50.736Z,102056.28
2023-02-04T18:46:55.159Z,102062.47
2023-02-04T18:48:59.590Z,102062.88
2023-02-04T18:51:04.008Z,102061.61
2023-02-04T18:53:08.471Z,102069.3
2023-02-04T18:55:13.596Z,102073.52
2023-02-04T18:57:18.507Z,102069.89
2023-02-04T18:59:22.908Z,102064.34
2023-02-04T19:01:27.589Z,102068.22
2023-02-04T19:03:32.115Z,102066.52
2023-02-04T19:05:36.630Z,102066.41
2023-02-04T19:07:41.101Z,102065.47
2023-02-04T19:09:45.543Z,102064.94
2023-02-04T19:11:50.022Z,102067.48
2023-02-04T19:13:54.472Z,102065.8
2023-02-04T19:15:58.988Z,102068.28
2023-02-04T19:18:03.396Z,102074.04
2023-02-04T19:20:07.933Z,102075.84
2023-02-04T19:22:13.093Z,102078.13
2023-02-04T19:24:17.925Z,102077.02
2023-02-04T19:26:22.379Z,102076.19
2023-02-04T19:28:27.150Z,102082.24
2023-02-04T19:30:31.976Z,102080.36
2023-02-04T19:32:36.526Z,102070.22
2023-02-04T19:34:41.042Z,102064.69
2023-02-04T19:36:45.470Z,102060.86
2023-02-04T19:38:51.061Z,102062.92
2023-02-04T19:40:56.526Z,102065.69
2023-02-04T19:43:00.983Z,102070.88
2023-02-04T19:45:05.427Z,102072.47
2023-02-04T19:47:09.898Z,102075.17
2023-02-04T19:49:14.311Z,102081.31
2023-02-04T19:51:18.781Z,102079.5
2023-02-04T19:53:23.186Z,102084.61
2023-02-04T19:55:27.583Z,102083.22
2023-02-04T19:57:32.042Z,102083.61
2023-02-04T19:59:36.475Z,102086.97
2023-02-04T20:01:40.963Z,102080.47
2023-02-04T20:03:45.426Z,102084.74
2023-02-04T20:05:49.855Z,102086.82
2023-02-04T20:07:54.243Z,102092.29
2023-02-04T20:09:58.664Z,102092.89
2023-02-04T20:12:03.041Z,102095.82
2023-02-04T20:14:07.438Z,102098.74
2023-02-04T20:16:11.908Z,102099.08
2023-02-04T20:18:16.409Z,102098.28
2023-02-04T20:20:20.860Z,102110.17
2023-02-04T20:22:25.244Z,102108.76
2023-02-04T20:24:29.634Z,102110.86
2023-02-04T20:26:34.069Z,102126.34
2023-02-04T20:28:38.503Z,102113
2023-02-04T20:30:43.323Z,102116.09
2023-02-04T20:32:48.168Z,102119.8
2023-02-04T20:34:52.656Z,102121.53
2023-02-04T20:36:57.160Z,102120.44
2023-02-04T20:39:01.527Z,102120.88
2023-02-04T20:41:06.145Z,102122.24
2023-02-04T20:43:10.559Z,102135.95
2023-02-04T20:45:14.951Z,102133.23
2023-02-04T20:47:19.349Z,102125.73
2023-02-04T20:49:23.874Z,102132.38
2023-02-04T20:51:28.335Z,102130.86
2023-02-04T20:53:32.787Z,102132.97
2023-02-04T20:55:37.831Z,102131.94
2023-02-04T20:57:42.227Z,102138.5
2023-02-04T20:59:46.608Z,102135.79
2023-02-04T21:01:51.305Z,102137.69
2023-02-04T21:03:55.793Z,102141.05
2023-02-04T21:06:00.266Z,102147.13
2023-02-04T21:08:04.643Z,102147.44
2023-02-04T21:10:09.011Z,102147.7
2023-02-04T21:12:13.401Z,102147.36
2023-02-04T21:14:17.778Z,102153.7
2023-02-04T21:16:22.338Z,102145.45
2023-02-04T21:18:26.712Z,102147.35
2023-02-04T21:20:31.087Z,102148.77
2023-02-04T21:22:35.505Z,102157.66
2023-02-04T21:24:39.859Z,102158.02
2023-02-04T21:26:44.321Z,102157.7
2023-02-04T21:28:48.704Z,102156.38
2023-02-04T21:30:53.245Z,102171.92
2023-02-04T21:32:57.782Z,102170.2
2023-02-04T21:35:02.280Z,102166
2023-02-04T21:37:06.715Z,102170.19
2023-02-04T21:39:11.091Z,102171.52
2023-02-04T21:41:15.556Z,102176.06
2023-02-04T21:43:20.035Z,102179.34
2023-02-04T21:45:24.445Z,102175.72
2023-02-04T21:47:28.840Z,102175.97
2023-02-04T21:49:33.303Z,102177.18
2023-02-04T21:51:37.746Z,102181.63
2023-02-04T21:53:42.203Z,102180.81
2023-02-04T21:55:46.610Z,102179.58
2023-02-04T21:57:51.164Z,102184.48
2023-02-04T21:59:55.635Z,102172.23
2023-02-04T22:02:00.204Z,102171.31
2023-02-04T22:04:04.799Z,102177.42
2023-02-04T22:06:09.278Z,102173.17
2023-02-04T22:08:13.703Z,102179.54
2023-02-04T22:10:18.069Z,102183.63
2023-02-04T22:12:22.600Z,102187.83
2023-02-04T22:14:27.129Z,102191.69
2023-02-04T22:16:31.677Z,102187.25
2023-02-04T22:18:36.124Z,102188.27
2023-02-04T22:20:40.696Z,102186.38
2023-02-04T22:22:45.271Z,102188.53
2023-02-04T22:24:49.745Z,102188.23
2023-02-04T22:26:54.174Z,102199.41
2023-02-04T22:28:58.618Z,102198.53
2023-02-04T22:31:03.466Z,102205.47
2023-02-04T22:33:08.077Z,102198.02
2023-02-04T22:35:12.483Z,102197.35
2023-02-04T22:37:16.899Z,102199.69
2023-02-04T22:39:21.348Z,102202.11
2023-02-04T22:41:25.783Z,102203.55
2023-02-04T22:43:30.196Z,102203.63
2023-02-04T22:45:35.478Z,102202.77
2023-02-04T22:47:40.119Z,102205.09
2023-02-04T22:49:44.569Z,102206.04
2023-02-04T22:51:49.102Z,102205.67
2023-02-04T22:53:53.569Z,102206.02
2023-02-04T22:55:57.980Z,102205.26
2023-02-04T22:58:02.398Z,102204.41
2023-02-04T23:00:06.820Z,102210.82
2023-02-04T23:02:11.371Z,102212.43
2023-02-04T23:04:15.922Z,102208.77
2023-02-04T23:06:20.441Z,102203.59
2023-02-04T23:08:24.822Z,102201.91
2023-02-04T23:10:29.241Z,102203.89
2023-02-04T23:12:33.615Z,102197.89
2023-02-04T23:14:37.984Z,102199.2
2023-02-04T23:16:42.515Z,102198.01
2023-02-04T23:18:47.048Z,102196.89
2023-02-04T23:20:51.433Z,102198.25
2023-02-04T23:22:55.794Z,102199.72
2023-02-04T23:25:00.289Z,102195.91
2023-02-04T23:27:04.700Z,102195.06
2023-02-04T23:29:09.137Z,102197.67
2023-02-04T23:31:13.697Z,102190.4
2023-02-04T23:33:18.250Z,102200.8
2023-02-04T23:35:22.711Z,102189.69
2023-02-04T23:37:27.130Z,102183.22
2023-02-04T23:39:31.545Z,102192.2
2023-02-04T23:41:35.971Z,102194.27
2023-02-04T23:43:40.601Z,102189.05
2023-02-04T23:45:45.234Z,102184.71
2023-02-04T23:47:49.677Z,102184.15